Forester — DIUT — position and weather

sailwx.info

Track history (hours):
 
Tides and Currents Weather Stations Pressure Air Temp Water Temp Dewpoint Dewpoint Depression Visibility Wind Speed Wind Dir Waves Ship Positions

Forester

Last reported at 2015-Jun-29 22:33 UTC. Time now 2015-Jun-29 23:09 UTC.
Position N 51°16' E 002°04'.

Length 100 m; draft 7.3 m.

Type: Ship. MMSI: 211233870.

Date/timePositionNaut miles runAvg speedWind from/ knotsBaromVisibWave heightAir tempDewpointWater temp
2015-Jun-29 22:33N 51°16' E 002°04'1211.5
2015-Jun-29 21:33N 51°08' E 001°51'1211.6
2015-Jun-29 20:33N 50°59' E 001°38'1110.5
2015-Jun-29 19:33N 50°51' E 001°29'9 8.9
2015-Jun-29 18:33N 50°42' E 001°24'8 7.8
2015-Jun-29 17:33N 50°36' E 001°16'17 7.5
2015-Jun-29 15:19N 50°26' E 000°55'7 7.5
2015-Jun-29 14:22N 50°24' E 000°44'16 7.5
2015-Jun-29 12:14N 50°20' E 000°20'61 9.1
2015-Jun-29 05:33N 50°02' W 001°11'1211.8
2015-Jun-29 04:33N 49°58' W 001°28'1211.3
2015-Jun-29 03:29N 49°56' W 001°47'1010.0
2015-Jun-29 02:29N 49°55' W 002°02'8 8.5
2015-Jun-29 01:33N 49°54' W 002°15'9 7.2
2015-Jun-29 00:20N 49°51' W 002°28'14 7.2
2015-Jun-28 22:27N 49°48' W 002°48'60 8.7
2015-Jun-28 15:29N 49°17' W 004°08'9 9.7
2015-Jun-28 14:32N 49°12' W 004°21'2010.1
2015-Jun-28 12:33N 49°02' W 004°47'61 9.6
2015-Jun-28 06:11N 48°21' W 005°54'610.0
2015-Jun-28 05:33N 48°15' W 005°58'13 9.8
2015-Jun-28 04:15N 48°04' W 006°07'7210.3
2015-Jun-27 21:17N 46°60' W 006°56'1210.7
2015-Jun-27 20:11N 46°49' W 007°04'28910.4
2015-Jun-26 16:27N 42°24' W 009°46'2010.1
2015-Jun-26 14:26N 42°03' W 009°46'1010.5
2015-Jun-26 13:28N 41°53' W 009°46'4210.7
2015-Jun-26 09:33N 41°11' W 009°46'1110.8
2015-Jun-26 08:33N 41°00' W 009°46'1212.0
2015-Jun-26 07:33N 40°48' W 009°47'1110.5
2015-Jun-26 06:33N 40°38' W 009°47'1110.6
2015-Jun-26 05:32N 40°27' W 009°48'1010.5
2015-Jun-26 04:33N 40°17' W 009°48'1110.6
2015-Jun-26 03:33N 40°06' W 009°48'1110.5
2015-Jun-26 02:33N 39°56' W 009°48'1010.3
2015-Jun-26 01:33N 39°45' W 009°48'10 9.9
2015-Jun-26 00:33N 39°36' W 009°49'1010.1
2015-Jun-25 23:33N 39°25' W 009°49'1010.0
2015-Jun-25 22:33N 39°15' W 009°50'10 9.9
2015-Jun-25 21:33N 39°06' W 009°50'10 9.7
2015-Jun-25 20:33N 38°56' W 009°50'1010.2
2015-Jun-25 19:33N 38°46' W 009°50'10 9.7
2015-Jun-25 18:33N 38°36' W 009°48'10 9.8
2015-Jun-25 17:33N 38°27' W 009°45'10 9.6
2015-Jun-25 16:33N 38°17' W 009°41'10 9.5
2015-Jun-25 15:33N 38°08' W 009°38'10 9.8
2015-Jun-25 14:33N 37°59' W 009°35'1010.0
2015-Jun-25 13:33N 37°49' W 009°32'1010.0
2015-Jun-25 12:33N 37°39' W 009°29'7 3.4
2015-Jun-25 10:33N 37°32' W 009°27'1211.5
2015-Jun-25 09:33N 37°21' W 009°24'1111.1
2015-Jun-25 08:33N 37°10' W 009°22'1616.4
2015-Jun-25 07:33N 36°54' W 009°18'9 8.5
2015-Jun-25 06:33N 36°48' W 009°11'9 8.7
2015-Jun-25 05:33N 36°44' W 009°01'1010.4
2015-Jun-25 04:33N 36°41' W 008°48'1111.3
2015-Jun-25 03:33N 36°38' W 008°35'1111.4
2015-Jun-25 02:33N 36°36' W 008°21'1211.3
2015-Jun-25 01:30N 36°33' W 008°07'1111.3
2015-Jun-25 00:33N 36°30' W 007°54'1711.5
2015-Jun-24 23:06N 36°24' W 007°34'611.6
2015-Jun-24 22:33N 36°22' W 007°27'9410.3
2015-Jun-24 13:29N 35°58' W 005°35'7 7.5
2015-Jun-24 12:30N 36°01' W 005°26'8 7.8
2015-Jun-24 11:29N 36°03' W 005°17'104 9.3
2015-Jun-24 00:16N 36°24' W 003°10'7 9.5
2015-Jun-23 23:30N 36°24' W 003°01'9 9.2
2015-Jun-23 22:31N 36°25' W 002°50'9 9.4
2015-Jun-23 21:33N 36°26' W 002°39'10 9.7
2015-Jun-23 20:33N 36°26' W 002°27'9 9.1
2015-Jun-23 19:33N 36°26' W 002°15'4 7.8
2015-Jun-23 19:06N 36°27' W 002°11'61 1.9
2015-Jun-22 10:06N 37°09' W 001°15'610.4
2015-Jun-22 09:33N 37°08' W 001°08'1010.4
2015-Jun-22 08:33N 37°07' W 000°55'1010.5
2015-Jun-22 07:33N 37°07' W 000°42'1110.7
2015-Jun-22 06:32N 37°06' W 000°28'1010.0
2015-Jun-22 05:33N 37°05' W 000°16'9 9.6
2015-Jun-22 04:33N 37°04' W 000°04'10 9.8
2015-Jun-22 03:33N 37°04' E 000°08'1010.3
2015-Jun-22 02:33N 37°03' E 000°21'1010.2
2015-Jun-22 01:33N 37°02' E 000°34'1110.1
2015-Jun-22 00:25N 37°01' E 000°48'910.2
2015-Jun-21 23:33N 37°01' E 000°59'1110.5
2015-Jun-21 22:33N 36°60' E 001°12'1010.4
2015-Jun-21 21:33N 36°59' E 001°25'1010.1
2015-Jun-21 20:33N 36°58' E 001°38'10 9.9
2015-Jun-21 19:33N 36°58' E 001°51'10 9.8
2015-Jun-21 18:33N 36°57' E 002°03'10 9.7
2015-Jun-21 17:33N 36°56' E 002°15'9 9.4
2015-Jun-21 16:34N 36°55' E 002°26'9 9.2
2015-Jun-21 15:33N 36°55' E 002°38'9 9.4
2015-Jun-21 14:33N 36°54' E 002°50'10 9.7
2015-Jun-21 13:32N 36°54' E 003°02'4210.5
2015-Jun-21 09:33N 36°59' E 003°54'3210.6
2015-Jun-21 06:32N 36°58' E 004°34'1110.7
2015-Jun-21 05:32N 36°57' E 004°47'3310.9
2015-Jun-21 02:32N 36°54' E 005°28'1010.5
2015-Jun-21 01:33N 36°53' E 005°41'  
Track history (hours):
 
Tides and Currents Weather Stations Pressure Air Temp Water Temp Dewpoint Dewpoint Depression Visibility Wind Speed Wind Dir Waves Ship Positions

Forester

Last reported at 2015-Jun-29 22:33 UTC. Time now 2015-Jun-29 23:09 UTC.
Position N 51°16' E 002°04'.

Length 100 m; draft 7.3 m.

Type: Ship. MMSI: 211233870.

Date/timePositionNaut miles runAvg speedWind from/ knotsBaromVisibWave heightAir tempDewpointWater temp
2015-Jun-29 22:33N 51°16' E 002°04'1211.5
2015-Jun-29 21:33N 51°08' E 001°51'1211.6
2015-Jun-29 20:33N 50°59' E 001°38'1110.5
2015-Jun-29 19:33N 50°51' E 001°29'9 8.9
2015-Jun-29 18:33N 50°42' E 001°24'8 7.8
2015-Jun-29 17:33N 50°36' E 001°16'17 7.5
2015-Jun-29 15:19N 50°26' E 000°55'7 7.5
2015-Jun-29 14:22N 50°24' E 000°44'16 7.5
2015-Jun-29 12:14N 50°20' E 000°20'61 9.1
2015-Jun-29 05:33N 50°02' W 001°11'1211.8
2015-Jun-29 04:33N 49°58' W 001°28'1211.3
2015-Jun-29 03:29N 49°56' W 001°47'1010.0
2015-Jun-29 02:29N 49°55' W 002°02'8 8.5
2015-Jun-29 01:33N 49°54' W 002°15'9 7.2
2015-Jun-29 00:20N 49°51' W 002°28'14 7.2
2015-Jun-28 22:27N 49°48' W 002°48'60 8.7
2015-Jun-28 15:29N 49°17' W 004°08'9 9.7
2015-Jun-28 14:32N 49°12' W 004°21'2010.1
2015-Jun-28 12:33N 49°02' W 004°47'61 9.6
2015-Jun-28 06:11N 48°21' W 005°54'610.0
2015-Jun-28 05:33N 48°15' W 005°58'13 9.8
2015-Jun-28 04:15N 48°04' W 006°07'7210.3
2015-Jun-27 21:17N 46°60' W 006°56'1210.7
2015-Jun-27 20:11N 46°49' W 007°04'28910.4
2015-Jun-26 16:27N 42°24' W 009°46'2010.1
2015-Jun-26 14:26N 42°03' W 009°46'1010.5
2015-Jun-26 13:28N 41°53' W 009°46'4210.7
2015-Jun-26 09:33N 41°11' W 009°46'1110.8
2015-Jun-26 08:33N 41°00' W 009°46'1212.0
2015-Jun-26 07:33N 40°48' W 009°47'1110.5
2015-Jun-26 06:33N 40°38' W 009°47'1110.6
2015-Jun-26 05:32N 40°27' W 009°48'1010.5
2015-Jun-26 04:33N 40°17' W 009°48'1110.6
2015-Jun-26 03:33N 40°06' W 009°48'1110.5
2015-Jun-26 02:33N 39°56' W 009°48'1010.3
2015-Jun-26 01:33N 39°45' W 009°48'10 9.9
2015-Jun-26 00:33N 39°36' W 009°49'1010.1
2015-Jun-25 23:33N 39°25' W 009°49'1010.0
2015-Jun-25 22:33N 39°15' W 009°50'10 9.9
2015-Jun-25 21:33N 39°06' W 009°50'10 9.7
2015-Jun-25 20:33N 38°56' W 009°50'1010.2
2015-Jun-25 19:33N 38°46' W 009°50'10 9.7
2015-Jun-25 18:33N 38°36' W 009°48'10 9.8
2015-Jun-25 17:33N 38°27' W 009°45'10 9.6
2015-Jun-25 16:33N 38°17' W 009°41'10 9.5
2015-Jun-25 15:33N 38°08' W 009°38'10 9.8
2015-Jun-25 14:33N 37°59' W 009°35'1010.0
2015-Jun-25 13:33N 37°49' W 009°32'1010.0
2015-Jun-25 12:33N 37°39' W 009°29'7 3.4
2015-Jun-25 10:33N 37°32' W 009°27'1211.5
2015-Jun-25 09:33N 37°21' W 009°24'1111.1
2015-Jun-25 08:33N 37°10' W 009°22'1616.4
2015-Jun-25 07:33N 36°54' W 009°18'9 8.5
2015-Jun-25 06:33N 36°48' W 009°11'9 8.7
2015-Jun-25 05:33N 36°44' W 009°01'1010.4
2015-Jun-25 04:33N 36°41' W 008°48'1111.3
2015-Jun-25 03:33N 36°38' W 008°35'1111.4
2015-Jun-25 02:33N 36°36' W 008°21'1211.3
2015-Jun-25 01:30N 36°33' W 008°07'1111.3
2015-Jun-25 00:33N 36°30' W 007°54'1711.5
2015-Jun-24 23:06N 36°24' W 007°34'611.6
2015-Jun-24 22:33N 36°22' W 007°27'9410.3
2015-Jun-24 13:29N 35°58' W 005°35'7 7.5
2015-Jun-24 12:30N 36°01' W 005°26'8 7.8
2015-Jun-24 11:29N 36°03' W 005°17'104 9.3
2015-Jun-24 00:16N 36°24' W 003°10'7 9.5
2015-Jun-23 23:30N 36°24' W 003°01'9 9.2
2015-Jun-23 22:31N 36°25' W 002°50'9 9.4
2015-Jun-23 21:33N 36°26' W 002°39'10 9.7
2015-Jun-23 20:33N 36°26' W 002°27'9 9.1
2015-Jun-23 19:33N 36°26' W 002°15'4 7.8
2015-Jun-23 19:06N 36°27' W 002°11'61 1.9
2015-Jun-22 10:06N 37°09' W 001°15'610.4
2015-Jun-22 09:33N 37°08' W 001°08'1010.4
2015-Jun-22 08:33N 37°07' W 000°55'1010.5
2015-Jun-22 07:33N 37°07' W 000°42'1110.7
2015-Jun-22 06:32N 37°06' W 000°28'1010.0
2015-Jun-22 05:33N 37°05' W 000°16'9 9.6
2015-Jun-22 04:33N 37°04' W 000°04'10 9.8
2015-Jun-22 03:33N 37°04' E 000°08'1010.3
2015-Jun-22 02:33N 37°03' E 000°21'1010.2
2015-Jun-22 01:33N 37°02' E 000°34'1110.1
2015-Jun-22 00:25N 37°01' E 000°48'910.2
2015-Jun-21 23:33N 37°01' E 000°59'1110.5
2015-Jun-21 22:33N 36°60' E 001°12'1010.4
2015-Jun-21 21:33N 36°59' E 001°25'1010.1
2015-Jun-21 20:33N 36°58' E 001°38'10 9.9
2015-Jun-21 19:33N 36°58' E 001°51'10 9.8
2015-Jun-21 18:33N 36°57' E 002°03'10 9.7
2015-Jun-21 17:33N 36°56' E 002°15'9 9.4
2015-Jun-21 16:34N 36°55' E 002°26'9 9.2
2015-Jun-21 15:33N 36°55' E 002°38'9 9.4
2015-Jun-21 14:33N 36°54' E 002°50'10 9.7
2015-Jun-21 13:32N 36°54' E 003°02'4210.5
2015-Jun-21 09:33N 36°59' E 003°54'3210.6
2015-Jun-21 06:32N 36°58' E 004°34'1110.7
2015-Jun-21 05:32N 36°57' E 004°47'3310.9
2015-Jun-21 02:32N 36°54' E 005°28'1010.5
2015-Jun-21 01:33N 36°53' E 005°41'  

Dump ship's entire track history